ADDS METAR Data INFO
IDs: Format: Raw Decoded Include TAF

Data at: 0406 UTC 11 Dec 2017

KM91 110355Z AUTO 21007KT 10SM CLR 05/M04 A3013 RMK A01
KM91 110335Z AUTO 22007G13KT CLR 05/M04 A3013 RMK A01
KM91 110315Z AUTO 22008KT 10SM CLR 05/M04 A3013 RMK A01
KM91 110255Z AUTO 22009KT 10SM CLR 05/M05 A3013 RMK A01
KM91 110235Z AUTO 22009KT 10SM CLR 05/M05 A3012 RMK A01
KM91 110215Z AUTO 22009KT 10SM FEW038 05/M05 A3012 RMK A01
KM91 110155Z AUTO 21009KT 10SM FEW042 05/M05 A3011 RMK A01
KM91 110135Z AUTO 21008KT 10SM FEW042 05/M05 A3012 RMK A01
KM91 110115Z AUTO 21007KT 10SM CLR 04/M05 A3012 RMK A01
KM91 110055Z AUTO 22007KT 10SM FEW039 05/M05 A3012 RMK A01
KM91 110035Z AUTO 22008KT 10SM FEW042 04/M05 A3011 RMK A01
KM91 110015Z AUTO 22007KT 10SM FEW037 FEW044 05/M05 A3011 RMK A01
KM91 102355Z AUTO 22008KT 10SM FEW036 SCT043 05/M05 A3010 RMK A01
KM91 102335Z AUTO 22010KT 10SM FEW036 SCT044 06/M06 A3008 RMK A01
KM91 102315Z AUTO 22009KT 10SM CLR 06/M06 A3008 RMK A01
KM91 102255Z AUTO 21011KT 10SM CLR 06/M06 A3007 RMK A01
KM91 102235Z AUTO 21012G19KT 10SM CLR 07/M06 A3007 RMK A01
KM91 102215Z AUTO 21009G16KT 10SM CLR 07/M06 A3007 RMK A01
KM91 102155Z AUTO 22014KT 10SM CLR 08/M07 A3006 RMK A01
KM91 102135Z AUTO 20014G20KT 10SM CLR 09/M07 A3005 RMK A01
KM91 102115Z AUTO 21011G18KT 10SM CLR 09/M07 A3007 RMK A01
KM91 102055Z AUTO 22012G17KT 10SM CLR 08/M07 A3009 RMK A01
KM91 102035Z AUTO 21014KT 10SM CLR 08/M07 A3009 RMK A01
KM91 102015Z AUTO 21011G19KT 10SM CLR 08/M07 A3009 RMK A01
KM91 101955Z AUTO 21012KT 10SM CLR 08/M07 A3010 RMK A01
KM91 101935Z AUTO 22014KT 10SM CLR 08/M07 A3011 RMK A01
KM91 101915Z AUTO 20012KT 10SM CLR 07/M07 A3011 RMK A01
KM91 101855Z AUTO 20010G18KT 10SM CLR 07/M07 A3012 RMK A01
KM91 101835Z AUTO 23012G17KT 10SM CLR 06/M07 A3013 RMK A01
KM91 101815Z AUTO 22012KT 10SM CLR 06/M06 A3015 RMK A01
KM91 101755Z AUTO 23011G18KT 10SM CLR 05/M06 A3016 RMK A01
KM91 101735Z AUTO 13.76000014KT 10SM CLR 05/M06 A3018 RMK A01
KM91 101715Z AUTO 21013G18KT 10SM CLR 04/M06 A3019 RMK A01
KM91 101655Z AUTO 23010G16KT 10SM CLR 04/M05 A3020 RMK A01
KM91 101635Z AUTO 23014G20KT 10SM CLR 03/M06 A3021 RMK A01
KM91 101615Z AUTO 21010G17KT 10SM CLR 02/M06 A3021 RMK A01
KM91 101555Z AUTO 21012KT 10SM CLR 02/M05 A3021 RMK A01
KM91 101535Z AUTO 20010KT 10SM CLR 01/M05 A3021 RMK A01
KM91 101515Z AUTO 20011KT 10SM CLR 00/M06 A3022 RMK A01
KM91 101455Z AUTO 19012KT 10SM CLR M01/M06 A3022 RMK A01
KM91 101435Z AUTO 19008KT 10SM CLR M02/M06 A3023 RMK A01
KM91 101415Z AUTO 20006KT 10SM CLR M03/M06 A3023 RMK A01
KM91 101355Z AUTO 18005KT 10SM CLR M04/M07 A3023 RMK A01
KM91 101335Z AUTO 17004KT 10SM CLR M05/M07 A3023 RMK A01
KM91 101315Z AUTO 00000KT 10SM CLR M06/M08 A3024 RMK A01
KM91 101255Z AUTO 18003KT 10SM CLR M05/M08 A3024 RMK A01
KM91 101235Z AUTO 00000KT 10SM FEW026 M05/M08 A3023 RMK A01
KM91 101215Z AUTO 00000KT 10SM CLR M06/M08 A3023 RMK A01
KM91 101155Z AUTO 17003KT 10SM FEW026 FEW075 M06/M08 A3022 RMK A01
KM91 101135Z AUTO 18004KT 10SM FEW075 M06/M08 A3021 RMK A01
KM91 101115Z AUTO 00000KT 10SM FEW030 FEW038 FEW080 M05/M08 A3021 RMK A01
KM91 101055Z AUTO 00000KT 10SM CLR M05/M08 A3021 RMK A01
KM91 101035Z AUTO 00000KT 10SM FEW028 M05/M08 A3021 RMK A01
KM91 101015Z AUTO 00000KT 10SM FEW026 FEW031 M05/M08 A3021 RMK A01
KM91 100955Z AUTO 25003KT 10SM FEW029 FEW035 M05/M08 A3021 RMK A01
KM91 100935Z AUTO 00000KT 10SM FEW035 M05/M08 A3021 RMK A01
KM91 100915Z AUTO 00000KT 10SM FEW027 FEW032 M05/M08 A3021 RMK A01
KM91 100855Z AUTO 00000KT 10SM BKN032 M05/M08 A3021 RMK A01
KM91 100835Z AUTO 22003KT 10SM FEW024 BKN033 M05/M08 A3021 RMK A01
KM91 100815Z AUTO 00000KT 10SM FEW026 BKN033 M04/M08 A3020 RMK A01
KM91 100755Z AUTO 00000KT 10SM FEW026 BKN034 M04/M08 A3020 RMK A01
KM91 100735Z AUTO 26003KT 10SM SCT028 BKN034 M05/M07 A3021 RMK A01
KM91 100715Z AUTO 00000KT 10SM BKN030 BKN036 M04/M08 A3020 RMK A01
KM91 100655Z AUTO 00000KT 10SM SCT032 BKN038 M04/M08 A3020 RMK A01
KM91 100635Z AUTO 00000KT 10SM BKN032 OVC038 M03/M08 A3020 RMK A01
KM91 100615Z AUTO 33004KT 10SM SCT029 OVC036 M02/M08 A3020 RMK A01
KM91 100555Z AUTO 33003KT 10SM FEW028 BKN035 OVC042 M02/M08 A3020 RMK A01
KM91 100535Z AUTO 30003KT 10SM FEW030 BKN036 BKN041 M02/M08 A3019 RMK A01
KM91 100515Z AUTO 30004KT 10SM BKN035 OVC041 M02/M08 A3019 RMK A01
KM91 100455Z AUTO 31005KT 10SM BKN035 OVC040 M02/M08 A3018 RMK A01
KM91 100435Z AUTO 31005KT 10SM BKN036 BKN041 M01/M07 A3018 RMK A01
KM91 100415Z AUTO 32005KT 10SM OVC039 M01/M07 A3018 RMK A01
KM91 100355Z AUTO 33007KT 300V360 10SM OVC039 M00/M07 A3017 RMK A01
KM91 100335Z AUTO 32006KT 10SM BKN041 M00/M08 A3016 RMK A01
KM91 100315Z AUTO 32007G14KT 10SM SCT038 BKN045 00/M08 A3016 RMK A01
KM91 100255Z AUTO 30010KT 10SM OVC045 01/M07 A3015 RMK A01
KM91 100235Z AUTO 30010KT 10SM OVC045 01/M08 A3015 RMK A01
KM91 100215Z AUTO 30008G13KT 10SM OVC046 01/M07 A3014 RMK A01
KM91 100155Z AUTO 30010KT 10SM OVC047 01/M08 A3014 RMK A01
KM91 100135Z AUTO 29008KT 10SM OVC049 01/M07 A3014 RMK A01
KM91 100115Z AUTO 29010KT 10SM OVC049 01/M07 A3013 RMK A01
KM91 100055Z AUTO 29008KT 10SM OVC049 01/M07 A3012 RMK A01
KM91 100035Z AUTO 28009KT 10SM OVC050 01/M06 A3011 RMK A01
KM91 100015Z AUTO 28006KT 10SM FEW044 OVC050 01/M06 A3010 RMK A01
KM91 092355Z AUTO 26007KT 10SM SCT044 OVC050 01/M05 A3009 RMK A01
KM91 092335Z AUTO 28006KT 10SM FEW044 OVC050 01/M06 A3008 RMK A01
KM91 092315Z AUTO 27006KT 10SM OVC050 01/M05 A3007 RMK A01
KM91 092255Z AUTO 27007KT 10SM OVC049 01/M06 A3006 RMK A01
KM91 092235Z AUTO 27007KT 10SM OVC049 01/M06 A3005 RMK A01
KM91 092215Z AUTO 27008KT 10SM OVC047 01/M06 A3003 RMK A01
KM91 092155Z AUTO 29009KT 10SM OVC043 01/M06 A3003 RMK A01
KM91 092135Z AUTO 28009KT 10SM OVC039 01/M06 A3001 RMK A01
KM91 092115Z AUTO 28010KT OVC040 01/M06 A3000 RMK A01
KM91 092055Z AUTO 30011KT 10SM FEW028 OVC038 01/M05 A2998 RMK A01
KM91 092035Z AUTO 30010KT 10SM BKN028 OVC036 01/M04 A2997 RMK A01
KM91 092015Z AUTO 30011G18KT 280V340 10SM BKN027 BKN033 OVC040 01/M05 A2995 RMK A01
KM91 091955Z AUTO 30013G19KT 10SM BKN027 OVC040 01/M05 A2994 RMK A01
KM91 091935Z AUTO 30012G17KT 10SM BKN027 BKN031 OVC040 01/M05 A2993 RMK A01
KM91 091915Z AUTO 29006G15KT 10SM OVC027 01/M05 A2991 RMK A01
KM91 091855Z AUTO 28011KT 10SM OVC027 01/M05 A2990 RMK A01
KM91 091835Z AUTO 29008KT 10SM OVC028 01/M05 A2990 RMK A01
KM91 091815Z AUTO 26011KT 10SM OVC029 01/M06 A2990 RMK A01
KM91 091755Z AUTO 27013KT 10SM OVC028 00/M06 A2989 RMK A01
KM91 091735Z AUTO 28011KT 10SM OVC029 01/M06 A2990 RMK A01
KM91 091715Z AUTO 28012KT 10SM BKN028 BKN035 OVC047 01/M07 A2989 RMK A01
KM91 091655Z AUTO 26013KT 10SM BKN047 OVC085 01/M07 A2989 RMK A01
KM91 091635Z AUTO 23010KT 10SM BKN044 BKN085 01/M06 A2988 RMK A01
KM91 091615Z AUTO 23011KT 10SM OVC043 M00/M07 A2988 RMK A01